Time;durP1;ratioP1;P1;durP2;ratioP2;P2;SDS_P1;SDS_P2;PMS_P1;PMS_P2;Temp;Humidity;BMP_temperature;BMP_pressure;BME280_temperature;BME280_humidity;BME280_pressure;Samples;Min_cycle;Max_cycle;Signal;HPM_P1;HPM_P2
2023/03/13 00:00:59;;;;;;;43.88;12.55;;;;;;;5.57;100.00;99981.19;5043657;28;20183;-45
2023/03/13 00:03:24;;;;;;;54.45;12.52;;;;;;;5.62;100.00;99983.69;5036478;28;20202;-44
2023/03/13 00:05:55;;;;;;;56.72;13.18;;;;;;;5.60;100.00;99989.06;5040589;28;20198;-45
2023/03/13 00:08:21;;;;;;;49.45;11.68;;;;;;;5.62;100.00;99978.38;5040417;28;20187;-44
2023/03/13 00:10:46;;;;;;;55.20;11.25;;;;;;;5.59;100.00;99976.69;5043173;28;20477;-45
2023/03/13 00:13:12;;;;;;;47.65;10.82;;;;;;;5.59;100.00;99966.06;5042568;28;20218;-46
2023/03/13 00:15:37;;;;;;;51.40;10.63;;;;;;;5.63;100.00;99961.53;5042529;28;20199;-46
2023/03/13 00:18:03;;;;;;;48.47;10.82;;;;;;;5.63;100.00;99950.91;5037862;28;20188;-47
2023/03/13 00:20:28;;;;;;;48.65;9.52;;;;;;;5.63;100.00;99961.53;5038748;28;20270;-46
2023/03/13 00:22:54;;;;;;;42.30;9.32;;;;;;;5.67;100.00;99958.72;5040438;28;20703;-46
2023/03/13 00:25:19;;;;;;;47.40;9.93;;;;;;;5.64;100.00;99942.88;5042303;28;20196;-45
2023/03/13 00:27:45;;;;;;;48.78;9.05;;;;;;;5.67;100.00;99939.25;5042243;28;20200;-46
2023/03/13 00:30:11;;;;;;;39.17;8.80;;;;;;;5.68;100.00;99928.56;5039977;28;20199;-45
2023/03/13 00:32:41;;;;;;;49.35;9.90;;;;;;;5.65;100.00;99920.69;5036624;28;20199;-46
2023/03/13 00:35:07;;;;;;;41.45;8.65;;;;;;;5.73;100.00;99925.78;5043521;28;20215;-47
2023/03/13 00:37:32;;;;;;;37.15;8.90;;;;;;;5.70;100.00;99926.72;5039571;28;20655;-46
2023/03/13 00:39:58;;;;;;;44.78;9.80;;;;;;;5.71;100.00;99904.56;5040709;28;20196;-47
2023/03/13 00:42:23;;;;;;;52.05;9.30;;;;;;;5.75;100.00;99903.53;5021980;28;20188;-47
2023/03/13 00:44:49;;;;;;;40.75;10.48;;;;;;;5.75;100.00;99906.19;5019727;28;20274;-46
2023/03/13 00:47:14;;;;;;;45.95;8.93;;;;;;;5.76;100.00;99894.63;5024301;28;20180;-51
2023/03/13 00:49:42;;;;;;;49.90;10.52;;;;;;;5.76;100.00;99886.66;5040021;28;20176;-46
2023/03/13 00:52:07;;;;;;;44.92;9.63;;;;;;;5.82;100.00;99887.41;5036831;28;20562;-46
2023/03/13 00:54:33;;;;;;;39.53;10.02;;;;;;;5.82;100.00;99877.63;5044769;28;20210;-47
2023/03/13 00:56:58;;;;;;;46.67;11.48;;;;;;;5.84;100.00;99881.09;5041457;28;20182;-45
2023/03/13 00:59:24;;;;;;;42.42;9.82;;;;;;;5.88;100.00;99885.41;5040330;28;20543;-47
2023/03/13 01:01:49;;;;;;;35.30;11.45;;;;;;;5.88;100.00;99876.53;5039085;28;20188;-44
2023/03/13 01:04:15;;;;;;;40.63;9.90;;;;;;;5.83;100.00;99866.06;5018788;28;20234;-44
2023/03/13 01:06:41;;;;;;;42.50;11.05;;;;;;;5.83;100.00;99857.22;5040880;28;20180;-45
2023/03/13 01:09:09;;;;;;;50.30;11.80;;;;;;;5.77;100.00;99863.59;5041290;28;20180;-46
2023/03/13 01:11:37;;;;;;;39.08;9.48;;;;;;;5.87;100.00;99856.19;5024149;28;20229;-44
2023/03/13 01:14:06;;;;;;;42.35;10.50;;;;;;;5.83;100.00;99867.84;5043924;28;20756;-47
2023/03/13 01:16:34;;;;;;;33.80;10.35;;;;;;;5.80;100.00;99866.16;5036932;28;20601;-45
2023/03/13 01:19:03;;;;;;;46.35;10.95;;;;;;;5.84;100.00;99864.25;5015809;28;20599;-45
2023/03/13 01:21:29;;;;;;;48.65;10.98;;;;;;;5.82;100.00;99845.72;5025265;28;20520;-46
2023/03/13 01:23:55;;;;;;;36.80;10.45;;;;;;;5.80;100.00;99852.88;5037294;28;20290;-45
2023/03/13 01:26:22;;;;;;;38.25;11.27;;;;;;;5.82;100.00;99847.53;5038591;28;20697;-46
2023/03/13 01:28:48;;;;;;;42.80;10.90;;;;;;;5.81;100.00;99843.13;5041162;28;20629;-46
2023/03/13 01:31:19;;;;;;;44.20;11.25;;;;;;;5.80;100.00;99841.38;5016331;28;20677;-45
2023/03/13 01:33:47;;;;;;;44.72;11.93;;;;;;;5.78;100.00;99834.31;5024927;28;20218;-47
2023/03/13 01:36:15;;;;;;;38.60;10.88;;;;;;;5.78;100.00;99823.69;5042100;28;20183;-47
2023/03/13 01:38:41;;;;;;;43.30;12.60;;;;;;;5.82;100.00;99823.59;5023811;28;20250;-47
2023/03/13 01:41:09;;;;;;;40.63;11.63;;;;;;;5.84;100.00;99806.66;5023547;28;20200;-46
2023/03/13 01:43:36;;;;;;;44.13;12.80;;;;;;;5.86;100.00;99814.56;5023361;28;20208;-46
2023/03/13 01:46:08;;;;;;;41.20;11.60;;;;;;;5.88;100.00;99810.97;5042739;28;20192;-45
2023/03/13 01:48:54;;;;;;;33.22;11.13;;;;;;;5.86;100.00;99799.50;5024375;28;20196;-44
2023/03/13 01:51:31;;;;;;;26.35;10.20;;;;;;;5.94;100.00;99796.56;5030024;28;20187;-46
2023/03/13 01:54:16;;;;;;;41.28;11.80;;;;;;;5.89;100.00;99787.91;5019602;28;20208;-45
2023/03/13 01:56:50;;;;;;;49.70;12.75;;;;;;;5.89;100.00;99778.13;5022435;28;20199;-46
2023/03/13 01:59:21;;;;;;;49.15;12.50;;;;;;;5.87;100.00;99781.75;5025917;28;20187;-45
2023/03/13 02:01:49;;;;;;;36.65;11.63;;;;;;;5.94;100.00;99773.53;5026144;28;20253;-45
2023/03/13 02:04:18;;;;;;;43.42;12.23;;;;;;;5.99;100.00;99762.72;5019337;28;20570;-47
2023/03/13 02:06:47;;;;;;;42.88;12.13;;;;;;;5.97;100.00;99759.28;5038213;28;20600;-44
2023/03/13 02:09:18;;;;;;;39.67;12.63;;;;;;;5.95;100.00;99755.81;5039594;28;20712;-48
2023/03/13 02:11:54;;;;;;;36.83;11.55;;;;;;;5.95;100.00;99755.81;5039741;28;20224;-42
2023/03/13 02:14:25;;;;;;;35.65;10.85;;;;;;;5.96;100.00;99738.91;5027841;28;20243;-43
2023/03/13 02:16:52;;;;;;;35.55;13.07;;;;;;;5.95;100.00;99731.88;5042349;28;20187;-45
2023/03/13 02:19:30;;;;;;;40.65;10.55;;;;;;;5.96;100.00;99728.28;5045588;28;20748;-46
2023/03/13 02:22:25;;;;;;;38.97;11.48;;;;;;;5.96;100.00;99721.16;5038514;28;20187;-47
2023/03/13 02:25:08;;;;;;;40.47;10.52;;;;;;;5.98;100.00;99706.03;4987795;28;20207;-43
2023/03/13 02:27:34;;;;;;;34.83;10.73;;;;;;;5.95;100.00;99700.84;5029724;28;20721;-43
2023/03/13 02:30:01;;;;;;;33.08;10.43;;;;;;;5.94;100.00;99695.53;5032112;28;20558;-44
2023/03/13 02:32:29;;;;;;;41.53;10.48;;;;;;;6.00;100.00;99684.72;5026502;28;20191;-45
2023/03/13 02:35:00;;;;;;;33.22;10.35;;;;;;;5.97;100.00;99679.53;5020308;28;20273;-45
2023/03/13 02:37:29;;;;;;;37.45;11.07;;;;;;;5.97;100.00;99676.88;5039923;28;20186;-46
2023/03/13 02:39:59;;;;;;;35.47;10.98;;;;;;;6.00;100.00;99670.56;5023346;28;20684;-44
2023/03/13 02:42:27;;;;;;;30.13;9.68;;;;;;;5.97;100.00;99659.13;5016042;28;20283;-43
2023/03/13 02:44:52;;;;;;;33.85;9.98;;;;;;;5.98;100.00;99665.28;5029519;28;20199;-43
2023/03/13 02:47:23;;;;;;;39.72;11.43;;;;;;;6.01;100.00;99654.53;5021828;28;20176;-42
2023/03/13 02:49:49;;;;;;;38.63;9.88;;;;;;;5.98;100.00;99652.00;5034417;28;20243;-42
2023/03/13 02:52:25;;;;;;;31.92;10.52;;;;;;;5.99;100.00;99653.72;5025488;28;20186;-44
2023/03/13 02:54:57;;;;;;;35.50;10.82;;;;;;;6.00;100.00;99651.94;5025263;28;20206;-43
2023/03/13 02:57:22;;;;;;;30.38;10.35;;;;;;;5.98;100.00;99652.00;5012082;28;20257;-46
2023/03/13 02:59:48;;;;;;;26.73;9.80;;;;;;;5.96;100.00;99646.72;5043068;28;20646;-47
2023/03/13 03:02:13;;;;;;;30.48;11.00;;;;;;;5.98;100.00;99636.91;5028439;28;20194;-50
2023/03/13 03:04:40;;;;;;;34.47;10.38;;;;;;;6.00;100.00;99633.34;5028031;28;20597;-44
2023/03/13 03:07:07;;;;;;;30.38;10.77;;;;;;;6.00;100.00;99639.53;5041476;28;20634;-42
2023/03/13 03:09:33;;;;;;;31.90;11.43;;;;;;;5.98;100.00;99630.72;5022393;28;20194;-42
2023/03/13 03:12:04;;;;;;;33.67;10.82;;;;;;;5.97;100.00;99627.22;5022423;28;20192;-43
2023/03/13 03:14:29;;;;;;;38.63;12.85;;;;;;;6.00;100.00;99633.34;5036777;28;20211;-44
2023/03/13 03:16:55;;;;;;;32.70;12.48;;;;;;;5.98;100.00;99622.75;5024968;28;20233;-43
2023/03/13 03:19:23;;;;;;;36.78;15.15;;;;;;;5.98;100.00;99617.44;5027001;28;20250;-45
2023/03/13 03:21:48;;;;;;;38.00;14.40;;;;;;;5.96;100.00;99619.28;5044037;28;20187;-47
2023/03/13 03:24:17;;;;;;;38.05;15.55;;;;;;;6.00;100.00;99606.75;5031743;28;20218;-45
2023/03/13 03:26:42;;;;;;;40.88;15.30;;;;;;;5.98;100.00;99614.78;5032009;28;20187;-44
2023/03/13 03:29:15;;;;;;;42.95;16.35;;;;;;;5.94;100.00;99599.84;5029561;28;20753;-43
2023/03/13 03:31:41;;;;;;;44.83;18.25;;;;;;;5.96;100.00;99592.69;5014531;28;20392;-46
2023/03/13 03:34:07;;;;;;;41.20;18.25;;;;;;;5.95;100.00;99585.66;5027706;28;20593;-45
2023/03/13 03:36:33;;;;;;;48.58;18.55;;;;;;;5.95;100.00;99583.00;5025580;28;20192;-45
2023/03/13 03:38:59;;;;;;;49.22;19.45;;;;;;;5.98;100.00;99588.19;5023207;28;20184;-42
2023/03/13 03:41:26;;;;;;;43.35;19.80;;;;;;;5.96;100.00;99572.28;5033789;28;20192;-44
2023/03/13 03:43:52;;;;;;;47.38;20.83;;;;;;;5.94;100.00;99574.16;5019711;28;20609;-44
2023/03/13 03:46:22;;;;;;;55.28;21.55;;;;;;;5.93;100.00;99561.75;5019766;28;20179;-45
2023/03/13 03:48:47;;;;;;;52.83;21.63;;;;;;;5.95;100.00;99559.09;5018833;28;20697;-48
2023/03/13 03:51:13;;;;;;;47.97;20.80;;;;;;;5.95;100.00;99554.63;5019599;28;20196;-43
2023/03/13 03:53:41;;;;;;;49.13;22.33;;;;;;;5.98;100.00;99543.00;5027018;28;20698;-41
2023/03/13 03:56:07;;;;;;;53.40;20.77;;;;;;;5.92;100.00;99543.19;5035596;28;20180;-42
2023/03/13 03:58:35;;;;;;;48.50;20.55;;;;;;;5.93;100.00;99542.28;5021992;28;20560;-43
2023/03/13 04:01:15;;;;;;;47.33;19.25;;;;;;;5.96;100.00;99534.22;5017635;28;20688;-45
2023/03/13 04:03:40;;;;;;;43.38;18.52;;;;;;;5.92;100.00;99525.44;5019004;28;20239;-43
2023/03/13 04:06:06;;;;;;;37.47;18.40;;;;;;;5.94;100.00;99512.09;5040369;28;20262;-44
2023/03/13 04:08:32;;;;;;;45.42;17.92;;;;;;;5.94;100.00;99501.47;5024880;28;20186;-44
2023/03/13 04:10:59;;;;;;;41.08;16.52;;;;;;;5.96;100.00;99494.34;5021307;28;20237;-46
2023/03/13 04:13:26;;;;;;;42.60;17.65;;;;;;;5.94;100.00;99485.53;5026872;28;20216;-44
2023/03/13 04:15:52;;;;;;;44.97;16.92;;;;;;;5.94;100.00;99483.75;5028648;28;20516;-45
2023/03/13 04:18:18;;;;;;;44.05;15.90;;;;;;;5.99;100.00;99480.91;5009309;28;20190;-48
2023/03/13 04:20:44;;;;;;;45.15;17.23;;;;;;;5.96;100.00;99476.59;5025677;28;20187;-44
2023/03/13 04:23:10;;;;;;;47.30;15.45;;;;;;;5.97;100.00;99461.53;5021355;28;20210;-43
2023/03/13 04:25:36;;;;;;;42.28;15.07;;;;;;;5.98;100.00;99460.59;5019899;28;20192;-45
2023/03/13 04:28:03;;;;;;;39.67;16.40;;;;;;;5.99;100.00;99451.66;5022318;28;20590;-46
2023/03/13 04:30:36;;;;;;;44.80;15.45;;;;;;;6.01;100.00;99443.63;5026421;28;20188;-44
2023/03/13 04:33:20;;;;;;;40.90;14.77;;;;;;;6.02;100.00;99438.25;5025736;28;20230;-44
2023/03/13 04:36:01;;;;;;;43.38;14.43;;;;;;;6.00;100.00;99445.44;5028438;28;20187;-43
2023/03/13 04:38:44;;;;;;;45.78;14.00;;;;;;;6.05;100.00;99430.16;5038169;28;20190;-43
2023/03/13 04:41:36;;;;;;;42.10;14.70;;;;;;;6.08;100.00;99434.47;5017530;28;20200;-45
2023/03/13 04:44:17;;;;;;;43.30;14.25;;;;;;;6.07;100.00;99419.44;5020983;28;20204;-44
2023/03/13 04:47:01;;;;;;;38.75;14.15;;;;;;;6.08;100.00;99408.75;5036581;28;20209;-43
2023/03/13 04:49:36;;;;;;;33.83;12.88;;;;;;;6.10;100.00;99401.59;5041723;28;20187;-46
2023/03/13 04:52:36;;;;;;;46.17;15.20;;;;;;;6.10;100.00;99403.34;5028247;28;20290;-45
2023/03/13 04:55:27;;;;;;;41.58;15.73;;;;;;;6.13;100.00;99390.81;5021879;28;20222;-43
2023/03/13 04:58:12;;;;;;;49.20;15.30;;;;;;;6.12;100.00;99385.53;5021457;28;20204;-46
2023/03/13 05:00:56;;;;;;;35.30;14.23;;;;;;;6.14;100.00;99376.59;5040251;28;20741;-44
2023/03/13 05:03:30;;;;;;;39.30;15.02;;;;;;;6.13;100.00;99366.03;5040726;28;20195;-46
2023/03/13 05:06:16;;;;;;;38.50;14.18;;;;;;;6.15;100.00;99365.00;5012231;28;20345;-44
2023/03/13 05:09:08;;;;;;;41.78;15.45;;;;;;;6.18;100.00;99332.97;5031595;28;20186;-48
2023/03/13 05:12:09;;;;;;;37.75;15.30;;;;;;;6.23;100.00;99339.88;5025146;28;20199;-50
2023/03/13 05:15:04;;;;;;;44.70;15.40;;;;;;;6.23;100.00;99323.91;5031490;28;20259;-44
2023/03/13 05:17:50;;;;;;;34.10;13.48;;;;;;;6.26;100.00;99315.81;5014069;28;20196;-42
2023/03/13 05:20:31;;;;;;;36.70;15.13;;;;;;;6.25;100.00;99300.78;5031080;28;20314;-45
2023/03/13 05:23:08;;;;;;;29.73;13.60;;;;;;;6.25;100.00;99300.78;5022768;28;20273;-45
2023/03/13 05:25:52;;;;;;;32.70;14.70;;;;;;;6.30;100.00;99282.84;5043437;28;20290;-42
2023/03/13 05:28:44;;;;;;;31.35;13.80;;;;;;;6.30;100.00;99275.72;5038591;28;20191;-45
2023/03/13 05:31:25;;;;;;;28.73;14.10;;;;;;;6.32;100.00;99275.63;5024850;28;20815;-45
2023/03/13 05:34:11;;;;;;;29.38;13.75;;;;;;;6.35;100.00;99267.50;5029784;28;20208;-46
2023/03/13 05:36:51;;;;;;;31.20;13.50;;;;;;;6.36;100.00;99267.47;5027535;28;20187;-42
2023/03/13 05:39:34;;;;;;;26.80;13.10;;;;;;;6.37;100.00;99265.66;5039458;28;20191;-47
2023/03/13 05:42:18;;;;;;;31.17;13.55;;;;;;;6.39;100.00;99248.69;5037922;28;20198;-47
2023/03/13 05:44:56;;;;;;;29.55;13.30;;;;;;;6.40;100.00;99239.75;5031145;28;20203;-47
2023/03/13 05:47:45;;;;;;;30.80;13.35;;;;;;;6.46;100.00;99237.75;5029855;28;20552;-49
2023/03/13 05:50:29;;;;;;;33.13;13.07;;;;;;;6.48;100.00;99235.88;5040043;28;20257;-48
2023/03/13 05:53:16;;;;;;;23.83;12.10;;;;;;;6.47;100.00;99231.50;5024523;28;20195;-47
2023/03/13 05:56:04;;;;;;;24.27;11.65;;;;;;;6.52;100.00;99221.50;5038903;28;20195;-47
2023/03/13 05:58:57;;;;;;;22.50;11.75;;;;;;;6.52;100.00;99214.38;5037819;28;20358;-48
2023/03/13 06:01:41;;;;;;;24.73;11.85;;;;;;;6.62;100.00;99221.91;5038820;28;20199;-47
2023/03/13 06:04:13;;;;;;;30.15;11.13;;;;;;;6.57;100.00;99204.38;5023126;28;20256;-47
2023/03/13 06:06:39;;;;;;;24.55;10.88;;;;;;;6.62;100.00;99195.31;5020825;28;20318;-48
2023/03/13 06:09:06;;;;;;;18.52;9.77;;;;;;;6.59;100.00;99194.53;5037781;28;20777;-47
2023/03/13 06:11:33;;;;;;;19.25;10.23;;;;;;;6.65;100.00;99195.16;5029469;28;20183;-48
2023/03/13 06:13:59;;;;;;;23.08;9.80;;;;;;;6.65;100.00;99185.41;5023354;28;20214;-46
2023/03/13 06:16:44;;;;;;;17.10;9.15;;;;;;;6.66;100.00;99183.59;5014301;28;20204;-48
2023/03/13 06:19:13;;;;;;;17.40;8.57;;;;;;;6.70;100.00;99166.53;5039558;28;20180;-46
2023/03/13 06:21:39;;;;;;;15.20;8.50;;;;;;;6.71;100.00;99169.13;5040527;28;20194;-47
2023/03/13 06:24:05;;;;;;;14.30;7.82;;;;;;;6.75;100.00;99144.06;5037345;28;20204;-46
2023/03/13 06:26:31;;;;;;;14.80;7.28;;;;;;;6.76;100.00;99153.78;5013946;28;20203;-48
2023/03/13 06:28:57;;;;;;;13.20;7.05;;;;;;;6.78;100.00;99148.41;5000585;28;20295;-47
2023/03/13 06:31:23;;;;;;;13.98;7.18;;;;;;;6.79;100.00;99150.09;5034020;28;20233;-46
2023/03/13 06:33:53;;;;;;;17.33;7.13;;;;;;;6.78;100.00;99127.09;5020402;28;20215;-47
2023/03/13 06:36:19;;;;;;;12.02;6.88;;;;;;;6.80;100.00;99133.22;5022897;28;20184;-48
2023/03/13 06:38:44;;;;;;;16.45;6.57;;;;;;;6.85;100.00;99123.19;5010707;28;20546;-48
2023/03/13 06:41:10;;;;;;;9.32;5.57;;;;;;;6.86;100.00;99122.22;5040622;28;20199;-47
2023/03/13 06:43:38;;;;;;;11.48;5.28;;;;;;;6.88;100.00;99109.72;5037105;28;20294;-46
2023/03/13 06:46:04;;;;;;;10.77;5.10;;;;;;;6.92;100.00;99110.41;5035396;28;20188;-48
2023/03/13 06:48:29;;;;;;;9.02;4.65;;;;;;;6.97;100.00;99100.38;5026900;28;20179;-49
2023/03/13 06:50:55;;;;;;;7.13;4.45;;;;;;;6.94;100.00;99088.09;5039808;28;20556;-48
2023/03/13 06:53:21;;;;;;;8.18;4.50;;;;;;;7.00;100.00;99102.91;5036379;28;20673;-47
2023/03/13 06:55:47;;;;;;;7.45;4.43;;;;;;;6.98;100.00;99084.34;5029301;28;20195;-47
2023/03/13 06:58:13;;;;;;;8.50;4.32;;;;;;;6.98;100.00;99071.03;5034187;28;20191;-47
2023/03/13 07:00:41;;;;;;;8.85;4.25;;;;;;;7.00;100.00;99074.47;5040092;28;20187;-47
2023/03/13 07:03:07;;;;;;;9.88;4.75;;;;;;;7.03;100.00;99070.78;5039309;28;20288;-47
2023/03/13 07:05:32;;;;;;;10.10;4.50;;;;;;;7.11;100.00;99063.28;5040424;28;20207;-46
2023/03/13 07:07:58;;;;;;;7.82;4.38;;;;;;;7.08;100.00;99062.56;5040907;28;20665;-48
2023/03/13 07:10:23;;;;;;;8.88;4.38;;;;;;;7.07;100.00;99063.50;5042001;28;20182;-46
2023/03/13 07:12:49;;;;;;;7.35;5.20;;;;;;;7.12;100.00;99043.66;5037935;28;20282;-46
2023/03/13 07:15:14;;;;;;;8.68;4.68;;;;;;;7.17;100.00;99024.78;5038787;28;20483;-48
2023/03/13 07:17:40;;;;;;;6.20;4.30;;;;;;;7.22;100.00;99038.75;5034517;28;20183;-48
2023/03/13 07:20:09;;;;;;;9.07;4.47;;;;;;;7.21;100.00;99045.00;5037472;28;20261;-46
2023/03/13 07:22:36;;;;;;;9.32;4.72;;;;;;;7.22;100.00;99018.28;5038791;28;20270;-46
2023/03/13 07:25:03;;;;;;;6.10;4.63;;;;;;;7.26;100.00;99012.78;5035237;28;20184;-47
2023/03/13 07:27:29;;;;;;;10.60;5.03;;;;;;;7.31;100.00;98994.75;5036343;28;20192;-46
2023/03/13 07:29:54;;;;;;;6.60;4.82;;;;;;;7.39;100.00;98990.75;5035467;28;20184;-49
2023/03/13 07:32:20;;;;;;;6.18;5.15;;;;;;;7.38;100.00;99010.31;5037645;28;20643;-46
2023/03/13 07:34:45;;;;;;;6.32;4.13;;;;;;;7.42;100.00;99003.03;5038103;28;20234;-47
2023/03/13 07:37:12;;;;;;;7.00;4.45;;;;;;;7.42;100.00;99001.22;5037471;28;20262;-48
2023/03/13 07:39:38;;;;;;;6.80;4.70;;;;;;;7.47;100.00;98984.13;5039056;28;20519;-47
2023/03/13 07:42:03;;;;;;;5.35;3.78;;;;;;;7.48;100.00;98980.50;5038933;28;20253;-46
2023/03/13 07:44:29;;;;;;;4.85;3.95;;;;;;;7.60;100.00;98979.81;5036719;28;20729;-49
2023/03/13 07:46:54;;;;;;;5.63;4.38;;;;;;;7.60;100.00;98970.03;5037018;28;20228;-48
2023/03/13 07:49:20;;;;;;;5.80;4.55;;;;;;;7.71;100.00;98973.91;5037114;28;20215;-48
2023/03/13 07:51:47;;;;;;;6.22;4.60;;;;;;;7.70;100.00;98966.88;5035162;28;20631;-46
2023/03/13 07:54:12;;;;;;;9.25;5.30;;;;;;;7.73;100.00;98969.34;5038185;28;20219;-48
2023/03/13 07:56:38;;;;;;;6.75;5.07;;;;;;;7.75;100.00;98968.31;5043785;28;20229;-47
2023/03/13 07:59:04;;;;;;;8.23;5.05;;;;;;;7.80;100.00;98971.56;5024108;28;20223;-47
2023/03/13 08:01:30;;;;;;;9.10;6.22;;;;;;;7.84;100.00;98967.78;5035509;28;20271;-45
2023/03/13 08:03:57;;;;;;;8.65;5.90;;;;;;;7.89;100.00;98956.00;5042216;28;20888;-48
2023/03/13 08:06:24;;;;;;;9.27;6.97;;;;;;;7.91;100.00;98954.09;5027221;28;20297;-48
2023/03/13 08:08:51;;;;;;;12.70;8.25;;;;;;;7.93;100.00;98961.06;5038089;28;20198;-48
2023/03/13 08:11:19;;;;;;;13.50;10.55;;;;;;;7.96;100.00;98938.69;5034017;28;20280;-47
2023/03/13 08:13:44;;;;;;;11.80;8.18;;;;;;;8.01;100.00;98947.28;5039415;28;20589;-48
2023/03/13 08:16:16;;;;;;;6.97;6.28;;;;;;;8.07;100.00;98946.06;5038322;28;20184;-47
2023/03/13 08:18:44;;;;;;;6.88;5.57;;;;;;;8.08;100.00;98937.97;5032011;28;20716;-46
2023/03/13 08:21:22;;;;;;;6.35;4.80;;;;;;;8.09;100.00;98937.03;5036755;28;20226;-50
2023/03/13 08:23:48;;;;;;;5.70;4.43;;;;;;;8.11;100.00;98943.16;5024679;28;20290;-48
2023/03/13 08:26:18;;;;;;;4.55;4.15;;;;;;;8.19;100.00;98932.88;5043381;28;20545;-48
2023/03/13 08:28:46;;;;;;;4.60;3.75;;;;;;;8.16;100.00;98943.72;5041347;28;20190;-47
2023/03/13 08:31:14;;;;;;;4.88;3.75;;;;;;;8.24;100.00;98943.25;5036802;28;20191;-48
2023/03/13 08:33:42;;;;;;;5.20;3.50;;;;;;;8.28;100.00;98944.81;5026323;28;20294;-49
2023/03/13 08:36:17;;;;;;;3.92;3.40;;;;;;;8.31;100.00;98939.31;5040655;28;20230;-48
2023/03/13 08:38:44;;;;;;;3.83;3.53;;;;;;;8.38;100.00;98939.81;5038402;28;20188;-48
2023/03/13 08:41:16;;;;;;;5.28;3.75;;;;;;;8.45;100.00;98943.84;5040952;28;20191;-47
2023/03/13 08:43:41;;;;;;;3.70;3.40;;;;;;;8.46;100.00;98929.53;5039069;28;20227;-47
2023/03/13 08:46:07;;;;;;;3.58;3.28;;;;;;;8.52;100.00;98922.97;5040500;28;20713;-47
2023/03/13 08:48:33;;;;;;;6.15;3.05;;;;;;;8.58;100.00;98914.63;5041988;28;20270;-49
2023/03/13 08:51:10;;;;;;;4.25;3.00;;;;;;;8.64;100.00;98930.25;5037884;28;20219;-48
2023/03/13 08:53:37;;;;;;;3.90;2.97;;;;;;;8.70;100.00;98916.50;5040216;28;20288;-48
2023/03/13 08:56:03;;;;;;;2.90;2.70;;;;;;;8.75;100.00;98910.91;5033978;28;20191;-47
2023/03/13 08:58:30;;;;;;;2.75;2.50;;;;;;;8.82;100.00;98902.41;5036320;28;20536;-48
2023/03/13 09:01:05;;;;;;;3.03;2.75;;;;;;;8.87;100.00;98915.47;5039081;28;20195;-47
2023/03/13 09:03:31;;;;;;;3.35;2.47;;;;;;;8.89;100.00;98908.22;5037345;28;20204;-48
2023/03/13 09:05:58;;;;;;;2.50;2.25;;;;;;;8.91;100.00;98895.66;5039153;28;20184;-48
2023/03/13 09:08:24;;;;;;;2.10;2.00;;;;;;;8.93;100.00;98901.75;5039923;28;20207;-46
2023/03/13 09:11:10;;;;;;;2.80;2.10;;;;;;;8.97;100.00;98903.28;5024966;28;21255;-47
2023/03/13 09:13:38;;;;;;;3.85;1.95;;;;;;;9.02;100.00;98893.16;5040353;28;20215;-46
2023/03/13 09:16:09;;;;;;;2.15;1.95;;;;;;;9.08;100.00;98876.75;5041967;28;20184;-48
2023/03/13 09:18:35;;;;;;;1.92;1.83;;;;;;;9.17;100.00;98902.03;5035188;28;20864;-45
2023/03/13 09:21:02;;;;;;;3.28;2.00;;;;;;;9.25;100.00;98883.69;5038603;28;20257;-46
2023/03/13 09:23:28;;;;;;;2.00;1.90;;;;;;;9.23;100.00;98884.75;5039822;28;20239;-47
2023/03/13 09:25:56;;;;;;;2.00;1.90;;;;;;;9.26;100.00;98892.56;5039317;28;20183;-47
2023/03/13 09:28:22;;;;;;;3.55;1.92;;;;;;;9.27;100.00;98891.59;5044070;28;20191;-47
2023/03/13 09:30:48;;;;;;;2.60;1.40;;;;;;;9.30;100.00;98879.88;5047244;28;20179;-47
2023/03/13 09:33:15;;;;;;;1.77;1.67;;;;;;;9.41;100.00;98867.53;5039078;28;20234;-47
2023/03/13 09:35:41;;;;;;;1.60;1.50;;;;;;;9.46;100.00;98869.88;5038847;28;20195;-47
2023/03/13 09:38:07;;;;;;;1.80;1.70;;;;;;;9.56;100.00;98860.31;5041751;28;20186;-46
2023/03/13 09:40:45;;;;;;;1.70;1.60;;;;;;;9.59;100.00;98867.28;5041789;28;20211;-47
2023/03/13 09:43:41;;;;;;;2.17;1.70;;;;;;;9.62;100.00;98865.28;5038650;28;20297;-45
2023/03/13 09:46:40;;;;;;;1.52;1.30;;;;;;;9.67;100.00;98851.59;5034784;28;20303;-46
2023/03/13 09:49:26;;;;;;;1.70;1.60;;;;;;;9.70;100.00;98873.63;5037896;28;20183;-46
2023/03/13 09:52:18;;;;;;;1.80;1.70;;;;;;;9.73;100.00;98871.69;5038188;28;20176;-42
2023/03/13 09:54:50;;;;;;;1.02;1.02;;;;;;;9.84;100.00;98871.88;5039083;28;20219;-46
2023/03/13 09:57:42;;;;;;;1.30;1.30;;;;;;;9.89;100.00;98872.41;5034168;28;20199;-41
2023/03/13 10:00:32;;;;;;;1.02;1.02;;;;;;;9.92;100.00;98861.50;4988009;28;20204;-44
2023/03/13 10:03:09;;;;;;;1.10;1.00;;;;;;;10.00;100.00;98867.19;5005615;28;20227;-41
2023/03/13 10:05:38;;;;;;;1.20;1.10;;;;;;;10.02;100.00;98856.41;5039205;28;20646;-43
2023/03/13 10:08:17;;;;;;;3.03;0.75;;;;;;;10.05;100.00;98866.88;5038602;28;20188;-42
2023/03/13 10:10:48;;;;;;;0.60;0.60;;;;;;;10.07;100.00;98892.56;5038277;28;20768;-43
2023/03/13 10:13:20;;;;;;;1.17;0.63;;;;;;;10.13;100.00;98866.38;5036308;28;20202;-44
2023/03/13 10:15:56;;;;;;;1.27;0.60;;;;;;;10.20;100.00;98878.38;5039523;28;20253;-44
2023/03/13 10:18:23;;;;;;;0.70;0.70;;;;;;;10.22;100.00;98884.47;5041077;28;20222;-41
2023/03/13 10:20:57;;;;;;;0.93;0.80;;;;;;;10.24;100.00;98872.69;5042471;28;20183;-41
2023/03/13 10:23:47;;;;;;;0.70;0.70;;;;;;;10.24;100.00;98887.91;5038389;28;20957;-41
2023/03/13 10:26:21;;;;;;;1.13;0.95;;;;;;;10.20;100.00;98881.91;5038366;28;20225;-42
2023/03/13 10:28:49;;;;;;;1.25;1.00;;;;;;;10.18;100.00;98888.31;5040365;28;20195;-40
2023/03/13 10:31:36;;;;;;;1.55;1.27;;;;;;;10.20;100.00;98910.50;5039825;28;20242;-42
2023/03/13 10:34:19;;;;;;;1.80;1.70;;;;;;;10.18;100.00;98905.22;5039250;28;20242;-40
2023/03/13 10:36:48;;;;;;;2.40;1.65;;;;;;;10.25;100.00;98884.25;5042309;28;20179;-42
2023/03/13 10:39:19;;;;;;;3.38;2.05;;;;;;;10.56;100.00;98880.38;5043731;28;20273;-41
2023/03/13 10:41:46;;;;;;;4.55;2.28;;;;;;;10.62;100.00;98893.31;5035997;28;20192;-43
2023/03/13 10:44:23;;;;;;;3.53;1.85;;;;;;;10.68;100.00;98908.97;5043699;28;20204;-42
2023/03/13 10:46:50;;;;;;;3.50;2.13;;;;;;;10.76;100.00;98891.50;5036954;28;20184;-44
2023/03/13 10:49:21;;;;;;;4.93;2.00;;;;;;;10.87;100.00;98902.34;5044980;28;20230;-43
2023/03/13 10:52:03;;;;;;;2.92;1.67;;;;;;;11.07;100.00;98853.53;5040512;28;20187;-41
2023/03/13 10:54:35;;;;;;;4.18;1.90;;;;;;;11.17;100.00;98851.03;5044118;28;20237;-43
2023/03/13 10:57:08;;;;;;;3.80;1.60;;;;;;;11.27;100.00;98836.00;5030889;28;20238;-43
2023/03/13 10:59:42;;;;;;;5.05;1.73;;;;;;;11.25;100.00;98837.09;5041280;28;20246;-40
2023/03/13 11:02:20;;;;;;;3.90;1.20;;;;;;;11.27;100.00;98819.06;5035842;28;20172;-42
2023/03/13 11:04:50;;;;;;;5.00;1.67;;;;;;;11.26;100.00;98795.91;5042754;28;20277;-42
2023/03/13 11:07:39;;;;;;;2.60;1.38;;;;;;;11.26;100.00;98820.03;5037943;28;20715;-42
2023/03/13 11:10:20;;;;;;;2.78;1.20;;;;;;;11.30;100.00;98786.66;5038568;28;20233;-40
2023/03/13 11:12:52;;;;;;;2.95;1.30;;;;;;;11.38;100.00;98796.84;5041148;28;20203;-41
2023/03/13 11:15:28;;;;;;;5.40;1.40;;;;;;;11.47;100.00;98802.34;5038783;28;20203;-43
2023/03/13 11:18:07;;;;;;;1.60;1.27;;;;;;;11.49;100.00;98800.41;5035353;28;20528;-43
2023/03/13 11:20:39;;;;;;;4.40;1.35;;;;;;;11.57;100.00;98790.94;5034659;28;20188;-42
2023/03/13 11:23:23;;;;;;;3.42;1.33;;;;;;;11.60;100.00;98790.72;5034759;28;20230;-44
2023/03/13 11:26:05;;;;;;;3.25;1.45;;;;;;;11.72;100.00;98792.50;5038582;28;20194;-43
2023/03/13 11:28:43;;;;;;;3.08;1.38;;;;;;;11.73;100.00;98757.47;5037306;28;20197;-41
2023/03/13 11:31:24;;;;;;;2.72;1.65;;;;;;;11.87;100.00;98759.13;5027289;28;20219;-41
2023/03/13 11:33:59;;;;;;;2.42;1.30;;;;;;;11.88;100.00;98766.22;5038841;28;20268;-40
2023/03/13 11:36:35;;;;;;;4.88;1.50;;;;;;;12.05;100.00;98756.03;5038757;28;20171;-40
2023/03/13 11:39:35;;;;;;;2.33;1.05;;;;;;;12.01;100.00;98746.50;5039468;28;20175;-42
2023/03/13 11:42:06;;;;;;;3.92;1.38;;;;;;;12.28;100.00;98754.22;5037977;28;20202;-43
2023/03/13 11:44:45;;;;;;;5.10;1.63;;;;;;;12.36;100.00;98730.31;5040699;28;20362;-41